Flight Track Log - Related Links

Times and Time Zones

All times are in EDT time to prevent confusion due to time zone crossing. See the UAL33 flight status page for this flight to view local times or setup timezone preferences in your user account.


Time Position Orientation Groundspeed Altitude Reporting Facility
EDT Latitude Longitude Course Direction KTS MPH feet Rate Location/Type
Tue 04:48:22 AM 35.7121 140.4129 150° Southeast 189 217 2,100  Level FlightAware ADS-B
Tue 04:48:44 AM 35.6932 140.4267 148° Southeast 187 215 2,900 2,000 Climbing FlightAware ADS-B (LKPL)
Tue 04:49:07 AM 35.6748 140.4400 150° Southeast 205 236 3,600 1,538 Climbing FlightAware ADS-B (LKPL)
Tue 04:49:23 AM 35.6646 140.4473 150° Southeast 224 258 3,900 1,171 Climbing FlightAware ADS-B
Tue 04:49:48 AM 35.6366 140.4675 149° Southeast 245 282 4,400 1,469 Climbing FlightAware ADS-B (LKPL)
Tue 04:50:12 AM 35.6163 140.4821 149° Southeast 269 310 5,100 1,950 Climbing FlightAware ADS-B
Tue 04:50:28 AM 35.5971 140.4960 149° Southeast 276 318 5,700 2,526 Climbing FlightAware ADS-B
Tue 04:50:50 AM 35.5696 140.5161 148° Southeast 284 327 6,700 2,318 Climbing FlightAware ADS-B (LKPL)
Tue 04:51:12 AM 35.5526 140.5397 114° Southeast 287 330 7,400 1,946 Climbing FlightAware ADS-B
Tue 04:51:27 AM 35.5485 140.5592 97° East 291 335 7,900 1,935 Climbing FlightAware ADS-B
Tue 04:51:43 AM 35.5469 140.5747 97° East 298 343 8,400 1,467 Climbing FlightAware ADS-B
Tue 04:52:12 AM 35.5406 140.6379 97° East 307 353 9,000 1,200 Climbing FlightAware ADS-B
Tue 04:52:58 AM 35.5323 140.7190 97° East 315 362 9,900 1,139 Climbing FlightAware ADS-B
Tue 04:53:31 AM 35.5252 140.7857 96° East 348 400 10,500 1,040 Climbing FlightAware ADS-B (LKPL)
Tue 04:54:13 AM 35.5165 140.8677 97° East 388 447 11,200 1,326 Climbing FlightAware ADS-B
Tue 04:54:57 AM 35.5078 140.9482 97° East 417 480 12,400 1,966 Climbing FlightAware ADS-B
Tue 04:55:11 AM 35.5014 141.0077 97° East 418 481 13,100 2,471 Climbing FlightAware ADS-B (LKPL)
Tue 04:55:31 AM 35.4993 141.0559 88° East 425 489 13,800 1,770 Climbing FlightAware ADS-B (LKPL)
Tue 04:56:12 AM 35.5061 141.1359 83° East 441 507 14,900 1,833 Climbing FlightAware ADS-B
Tue 04:56:43 AM 35.5134 141.2085 83° East 445 512 16,000 2,000 Climbing FlightAware ADS-B
Tue 04:57:27 AM 35.5254 141.3302 83° East 454 522 17,400 1,920 Climbing FlightAware ADS-B
Tue 04:57:58 AM 35.5331 141.4109 84° East 461 531 18,400 1,760 Climbing FlightAware ADS-B
Tue 04:58:42 AM 35.5397 141.4842 80° East 471 542 19,600 1,714 Climbing FlightAware ADS-B
Tue 04:59:29 AM 35.5833 141.6565 62° Northeast 479 551 21,000 1,636 Climbing FlightAware ADS-B (LKPL)
Tue 05:00:10 AM 35.6232 141.7494 63° Northeast 486 559 22,000 1,537 Climbing FlightAware ADS-B
Tue 05:00:51 AM 35.6676 141.8538 62° Northeast 493 567 23,100 1,443 Climbing FlightAware ADS-B (LKPL)
Tue 05:01:29 AM 35.7095 141.9523 63° Northeast 498 573 23,900 1,250 Climbing FlightAware ADS-B (LKPL)
Tue 05:02:51 AM 35.7983 142.1625 63° Northeast 512 589 25,600 1,286 Climbing FlightAware ADS-B (LKPL)
Tue 05:03:21 AM 35.8307 142.2399 64° Northeast 515 593 26,300 1,188 Climbing FlightAware ADS-B (LKPL)
Tue 05:04:27 AM 35.8735 142.3414 63° Northeast 524 603 27,500 1,174 Climbing FlightAware ADS-B
Tue 05:05:39 AM 35.9853 142.6096 63° Northeast 534 615 29,000 1,053 Climbing FlightAware ADS-B (LKPL)
Tue 05:07:18 AM 36.0940 142.8720 64° Northeast 542 624 30,500 85 Climbing FlightAware ADS-B (LKPL)
Tue 05:09:00 AM 36.2201 143.1164 57° Northeast  Level Estimated
Tue 05:10:00 AM 36.2940 143.2606 58° Northeast  Level Estimated
Tue 05:11:00 AM 36.3678 143.4050 58° Northeast  Level Estimated
Tue 05:12:00 AM 36.4414 143.5497 58° Northeast  Level Estimated
Tue 05:13:00 AM 36.5148 143.6947 58° Northeast  Level Estimated
Tue 05:14:00 AM 36.5880 143.8400 58° Northeast  Level Estimated
Tue 05:15:00 AM 36.6611 143.9855 58° Northeast  Level Estimated
Tue 05:16:00 AM 36.7339 144.1313 58° Northeast  Level Estimated
Tue 05:17:00 AM 36.8066 144.2774 58° Northeast  Level Estimated
Tue 05:18:00 AM 36.8792 144.4237 58° Northeast  Level Estimated
Tue 05:19:00 AM 36.9515 144.5704 58° Northeast  Level Estimated
Tue 05:20:00 AM 37.0237 144.7173 58° Northeast  Level Estimated
Tue 05:21:00 AM 37.0956 144.8645 58° Northeast  Level Estimated
Tue 05:22:00 AM 37.1674 145.0119 59° Northeast  Level Estimated
Tue 05:23:00 AM 37.2390 145.1597 59° Northeast  Level Estimated
Tue 05:24:00 AM 37.3105 145.3077 59° Northeast  Level Estimated
Tue 05:25:00 AM 37.3817 145.4561 59° Northeast  Level Estimated
Tue 05:26:00 AM 37.4528 145.6046 59° Northeast  Level Estimated
Tue 05:27:00 AM 37.5236 145.7535 59° Northeast  Level Estimated
Tue 05:28:00 AM 37.5943 145.9027 59° Northeast  Level Estimated
Tue 05:29:00 AM 37.6648 146.0521 59° Northeast  Level Estimated
Tue 05:30:00 AM 37.7351 146.2019 59° Northeast  Level Estimated
Tue 05:31:00 AM 37.8052 146.3519 59° Northeast  Level Estimated
Tue 05:32:00 AM 37.8752 146.5022 59° Northeast  Level Estimated
Tue 05:33:00 AM 37.9449 146.6528 60° Northeast  Level Estimated
Tue 05:34:00 AM 38.0145 146.8036 60° Northeast  Level Estimated
Tue 05:35:00 AM 38.0838 146.9548 60° Northeast  Level Estimated
Tue 05:36:00 AM 38.1530 147.1062 60° Northeast  Level Estimated
Tue 05:37:00 AM 38.2219 147.2579 60° Northeast  Level Estimated
Tue 05:38:00 AM 38.2907 147.4100 60° Northeast  Level Estimated
Tue 05:39:00 AM 38.3593 147.5623 60° Northeast  Level Estimated
Tue 05:40:00 AM 38.4276 147.7149 60° Northeast  Level Estimated
Tue 05:41:00 AM 38.4958 147.8678 60° Northeast  Level Estimated
Tue 05:42:00 AM 38.5638 148.0209 60° Northeast  Level Estimated
Tue 05:43:00 AM 38.6316 148.1744 60° Northeast  Level Estimated
Tue 05:44:00 AM 38.6991 148.3281 61° Northeast  Level Estimated
Tue 05:45:00 AM 38.7665 148.4822 61° Northeast  Level Estimated
Tue 05:46:00 AM 38.8337 148.6365 61° Northeast  Level Estimated
Tue 05:47:00 AM 38.9006 148.7911 61° Northeast  Level Estimated
Tue 05:48:00 AM 38.9674 148.9460 61° Northeast  Level Estimated
Tue 05:49:00 AM 39.0340 149.1013 61° Northeast  Level Estimated
Tue 05:50:00 AM 39.1003 149.2567 61° Northeast  Level Estimated
Tue 05:51:00 AM 39.1665 149.4125 61° Northeast  Level Estimated
Tue 05:52:00 AM 39.2324 149.5686 61° Northeast  Level Estimated
Tue 05:53:00 AM 39.2981 149.7250 61° Northeast  Level Estimated
Tue 05:54:00 AM 39.3636 149.8817 62° Northeast  Level Estimated
Tue 05:55:00 AM 39.4290 150.0386 62° Northeast  Level Estimated
Tue 05:56:00 AM 39.4940 150.1959 62° Northeast  Level Estimated
Tue 05:57:00 AM 39.5589 150.3534 62° Northeast  Level Estimated
Tue 05:58:00 AM 39.6236 150.5113 62° Northeast  Level Estimated
Tue 05:59:00 AM 39.6884 150.6703 62° Northeast  Level Estimated
Tue 06:00:00 AM 39.7530 150.8295 62° Northeast  Level Estimated
Tue 06:01:00 AM 39.8173 150.9891 62° Northeast  Level Estimated
Tue 06:02:00 AM 39.8815 151.1490 62° Northeast  Level Estimated
Tue 06:03:00 AM 39.9454 151.3091 62° Northeast  Level Estimated
Tue 06:04:00 AM 40.0091 151.4696 63° Northeast  Level Estimated
Tue 06:05:00 AM 40.0704 151.6250 63° Northeast  Level Estimated
Tue 06:06:00 AM 40.1316 151.7806 63° Northeast  Level Estimated
Tue 06:07:00 AM 40.1925 151.9366 63° Northeast  Level Estimated
Tue 06:08:00 AM 40.2533 152.0928 63° Northeast  Level Estimated
Tue 06:09:00 AM 40.3138 152.2493 63° Northeast  Level Estimated
Tue 06:10:00 AM 40.3741 152.4061 63° Northeast  Level Estimated
Tue 06:11:00 AM 40.4342 152.5632 63° Northeast  Level Estimated
Tue 06:12:00 AM 40.4941 152.7206 63° Northeast  Level Estimated
Tue 06:13:00 AM 40.5538 152.8782 63° Northeast  Level Estimated
Tue 06:14:00 AM 40.6132 153.0361 64° Northeast  Level Estimated
Tue 06:15:00 AM 40.6725 153.1943 64° Northeast  Level Estimated
Tue 06:16:00 AM 40.7315 153.3528 64° Northeast  Level Estimated
Tue 06:17:00 AM 40.7903 153.5115 64° Northeast  Level Estimated
Tue 06:18:00 AM 40.8489 153.6706 64° Northeast  Level Estimated
Tue 06:19:00 AM 40.9073 153.8299 64° Northeast  Level Estimated
Tue 06:20:00 AM 40.9655 153.9895 64° Northeast  Level Estimated
Tue 06:21:00 AM 41.0234 154.1494 64° Northeast  Level Estimated
Tue 06:22:00 AM 41.0811 154.3095 64° Northeast  Level Estimated
Tue 06:23:00 AM 41.1386 154.4700 65° Northeast  Level Estimated
Tue 06:24:00 AM 41.1959 154.6307 65° Northeast  Level Estimated
Tue 06:25:00 AM 41.2529 154.7917 65° Northeast  Level Estimated
Tue 06:26:00 AM 41.3097 154.9530 65° Northeast  Level Estimated
Tue 06:27:00 AM 41.3663 155.1145 65° Northeast  Level Estimated
Tue 06:28:00 AM 41.4227 155.2764 65° Northeast  Level Estimated
Tue 06:29:00 AM 41.4788 155.4385 65° Northeast  Level Estimated
Tue 06:30:00 AM 41.5347 155.6009 65° Northeast  Level Estimated
Tue 06:31:00 AM 41.5904 155.7636 65° Northeast  Level Estimated
Tue 06:32:00 AM 41.6459 155.9266 65° Northeast  Level Estimated
Tue 06:33:00 AM 41.7011 156.0898 66° East  Level Estimated
Tue 06:34:00 AM 41.7561 156.2534 66° East  Level Estimated
Tue 06:35:00 AM 41.8108 156.4172 66° East  Level Estimated
Tue 06:36:00 AM 41.8654 156.5813 66° East  Level Estimated
Tue 06:37:00 AM 41.9197 156.7456 66° East  Level Estimated
Tue 06:38:00 AM 41.9737 156.9103 66° East  Level Estimated
Tue 06:39:00 AM 42.0275 157.0752 66° East  Level Estimated
Tue 06:40:00 AM 42.0811 157.2404 66° East  Level Estimated
Tue 06:41:00 AM 42.1345 157.4059 66° East  Level Estimated
Tue 06:42:00 AM 42.1876 157.5717 67° East  Level Estimated
Tue 06:43:00 AM 42.2405 157.7377 67° East  Level Estimated
Tue 06:44:00 AM 42.2931 157.9040 67° East  Level Estimated
Tue 06:45:00 AM 42.3455 158.0706 67° East  Level Estimated
Tue 06:46:00 AM 42.3976 158.2375 67° East  Level Estimated
Tue 06:47:00 AM 42.4495 158.4046 67° East  Level Estimated
Tue 06:48:00 AM 42.5012 158.5721 67° East  Level Estimated
Tue 06:49:00 AM 42.5526 158.7398 67° East  Level Estimated
Tue 06:50:00 AM 42.6038 158.9077 67° East  Level Estimated
Tue 06:51:00 AM 42.6547 159.0760 68° East  Level Estimated
Tue 06:52:00 AM 42.7054 159.2445 68° East  Level Estimated
Tue 06:53:00 AM 42.7558 159.4133 68° East  Level Estimated
Tue 06:54:00 AM 42.8060 159.5824 68° East  Level Estimated
Tue 06:55:00 AM 42.8560 159.7518 68° East  Level Estimated
Tue 06:56:00 AM 42.9056 159.9214 68° East  Level Estimated
Tue 06:57:00 AM 42.9551 160.0913 68° East  Level Estimated
Tue 06:58:00 AM 43.0043 160.2615 68° East  Level Estimated
Tue 06:59:00 AM 43.0532 160.4319 69° East  Level Estimated
Tue 07:00:00 AM 43.1019 160.6026 69° East  Level Estimated
Tue 07:01:00 AM 43.1503 160.7736 69° East  Level Estimated
Tue 07:02:00 AM 43.1985 160.9449 69° East  Level Estimated
Tue 07:03:00 AM 43.2464 161.1164 69° East  Level Estimated
Tue 07:03:27 AM 41.1500 165.1333 75° East 540 621 39,000  Level Oakland Oceanic (ODAPS)
Tue 07:17:19 AM 41.6500 167.8000 77° East 527 606 39,000  Level Oakland Oceanic (ODAPS)
Tue 07:28:48 AM 42.0000 170.0000 79° East 517 595 39,000  Level Oakland Oceanic (ODAPS)
Tue 07:31:10 AM 42.0667 170.4500 79° East 517 595 39,000 62 Level Oakland Oceanic (ODAPS)
Tue 07:45:02 AM 42.4000 173.0833 81° East 503 579 40,000 36 Climbing Oakland Oceanic (ODAPS)
Tue 07:58:55 AM 42.6667 175.6333 83° East 488 562 40,000  Level Oakland Oceanic (ODAPS)
Tue 08:12:46 AM 42.8833 178.2167 84° East 496 571 40,000  Level Oakland Oceanic (ODAPS)
Tue 08:22:24 AM 43.0000 180.0000 87° East 521 600 40,000  Level Oakland Oceanic (ODAPS)
Tue 08:26:43 AM 43.0333 -179.1833 87° East 535 616 40,000  Level Oakland Oceanic (ODAPS)
Tue 08:40:30 AM 43.1000 -176.4833 89° East 543 625 40,000  Level Oakland Oceanic (ODAPS)
Tue 08:54:22 AM 43.1000 -173.6167 91° East 560 644 40,000  Level Oakland Oceanic (ODAPS)
Tue 09:08:16 AM 43.0333 -170.6333 94° East 573 659 40,000  Level Oakland Oceanic (ODAPS)
Tue 09:11:15 AM 43.0000 -170.0000 87° East 565 650 40,000  Level Oakland Oceanic (ODAPS)
Tue 09:22:42 AM 43.0833 -167.6667 88° East 556 640 40,000  Level Oakland Oceanic (ODAPS)
Tue 09:35:59 AM 43.1167 -164.7833 90° East 552 635 40,000  Level Oakland Oceanic (ODAPS)
Tue 09:49:51 AM 43.0667 -161.8833 92° East 551 634 40,000  Level Oakland Oceanic (ODAPS)
Tue 09:59:02 AM 43.0000 -160.0000 87° East 542 624 40,000  Level Oakland Oceanic (ODAPS)
Tue 10:03:49 AM 43.0333 -159.0167 87° East 536 617 40,000  Level Oakland Oceanic (ODAPS)
Tue 10:17:35 AM 43.1000 -156.1833 89° East 529 609 40,000  Level Oakland Oceanic (ODAPS)
Tue 10:31:26 AM 43.1000 -153.4167 91° East 525 604 40,000  Level Oakland Oceanic (ODAPS)
Tue 10:45:19 AM 43.0333 -150.6667 94° East 521 600 40,000  Level Oakland Oceanic (ODAPS)
Tue 10:48:50 AM 43.0000 -150.0000 87° East 510 587 40,000  Level Oakland Oceanic (ODAPS)
Tue 10:59:19 AM 43.0667 -147.9500 88° East 506 582 40,000  Level Oakland Oceanic (ODAPS)
Tue 11:13:03 AM 43.1167 -145.2667 90° East 500 575 40,000 36 Level Oakland Oceanic (ODAPS)
Tue 11:26:55 AM 43.0833 -142.6667 92° East 491 565 41,000 36 Climbing Oakland Oceanic (ODAPS)
Tue 11:40:47 AM 43.0000 -140.1167 90° East 476 548 41,000  Level Oakland Oceanic (ODAPS)
Tue 11:41:00 AM 43.0000 -140.0000 102° East 491 565 41,000  Level FlightAware Transoceanic
Tue 11:41:27 AM 43.0000 -140.0000 102° East 491 565 41,000  Level Oakland Oceanic (ODAPS)
Tue 11:54:48 AM 42.6167 -137.6333 103° East 486 559 41,000  Level Oakland Oceanic (ODAPS)
Tue 12:08:30 PM 42.1667 -135.2167 105° East 493 567 41,000  Level Oakland Oceanic (ODAPS)
Tue 12:22:23 PM 41.6667 -132.8000 107° East 490 564 41,000  Level Oakland Oceanic (ODAPS)
Tue 12:28:56 PM 41.4000 -131.6500 107° East 492 566 41,000  Level Oakland Oceanic (ODAPS)
Tue 12:36:16 PM 41.1000 -130.3833 109° East 487 560 41,000  Level Oakland Oceanic (ODAPS)
Tue 12:38:35 PM 41.0000 -130.0000 106° East 493 567 41,000  Level Oakland Oceanic (ODAPS)
Tue 12:50:02 PM 40.5333 -127.9833 107° East 491 565 41,000 -7 Level Oakland Oceanic (ODAPS)
Tue 12:53:02 PM 40.4186 -127.4800 113° Southeast 494 568 40,900  Descending Oakland Center
Tue 12:54:00 PM 40.3816 -127.3302 108° East 493 567 41,000 98 Climbing FlightAware Transoceanic
Tue 12:54:03 PM 40.3769 -127.3100 108° East 493 567 41,000  Level Oakland Center
Tue 12:55:00 PM 40.3409 -127.1650 108° East 493 567 41,000  Level FlightAware Transoceanic
Tue 12:55:05 PM 40.3342 -127.1408 108° East 493 567 41,000  Level Oakland Center
Tue 12:56:00 PM 40.3000 -127.0000 112° Southeast 491 565 41,000  Level FlightAware Transoceanic
Tue 12:56:06 PM 40.2911 -126.9714 108° East 493 567 41,000  Level Oakland Center
Tue 12:57:00 PM 40.2482 -126.8349 112° Southeast 491 565 41,000 -97 Level FlightAware Transoceanic
Tue 12:57:08 PM 40.2369 -126.8097 114° Southeast 488 562 40,900  Descending Oakland Center
Tue 12:58:00 PM 40.1961 -126.6700 113° Southeast 491 565 41,000 98 Climbing FlightAware Transoceanic
Tue 12:58:09 PM 40.1542 -126.6692 128° Southeast 487 560 41,000  Level Oakland Center
Tue 01:03:58 PM 39.6500 -125.8478 129° Southeast 481 554 41,000  Level FlightAware ADS-B
Tue 01:05:23 PM 39.5315 -125.6577 129° Southeast 479 551 41,000  Level FlightAware ADS-B
Tue 01:06:02 PM 39.4762 -125.5693 129° Southeast 479 551 41,000  Level FlightAware ADS-B
Tue 01:06:32 PM 39.4354 -125.5044 129° Southeast 480 552 41,000  Level FlightAware ADS-B
Tue 01:07:02 PM 39.3920 -125.4354 129° Southeast 481 554 41,000  Level FlightAware ADS-B
Tue 01:07:42 PM 39.3367 -125.3477 129° Southeast 481 554 41,000  Level FlightAware ADS-B
Tue 01:08:22 PM 39.2808 -125.2593 129° Southeast 481 554 41,000  Level FlightAware ADS-B
Tue 01:09:41 PM 39.1694 -125.0837 129° Southeast 479 551 41,000  Level FlightAware ADS-B
Tue 01:10:23 PM 39.1101 -124.9909 129° Southeast 479 551 41,000  Level FlightAware ADS-B
Tue 01:11:39 PM 39.0047 -124.8261 129° Southeast 480 552 41,000  Level FlightAware ADS-B
Tue 01:12:23 PM 38.9420 -124.7286 129° Southeast 480 552 41,000  Level FlightAware ADS-B
Tue 01:13:02 PM 38.8878 -124.6448 130° Southeast 482 555 41,000  Level FlightAware ADS-B
Tue 01:13:43 PM 38.8351 -124.5631 130° Southeast 482 555 41,000  Level FlightAware ADS-B
Tue 01:14:23 PM 38.7947 -124.5008 130° Southeast 481 554 41,000  Level FlightAware ADS-B
Tue 01:15:01 PM 38.7171 -124.3812 130° Southeast 479 551 41,000  Level FlightAware ADS-B
Tue 01:15:42 PM 38.6663 -124.3033 130° Southeast 480 552 41,000  Level FlightAware ADS-B
Tue 01:16:21 PM 38.6052 -124.2099 130° Southeast 480 552 41,000  Level FlightAware ADS-B
Tue 01:17:00 PM 38.5478 -124.1222 130° Southeast 479 551 41,000  Level FlightAware ADS-B
Tue 01:17:38 PM 38.4940 -124.0405 130° Southeast 480 552 41,000  Level FlightAware ADS-B
Tue 01:18:23 PM 38.4423 -123.9620 130° Southeast 481 554 41,000  Level FlightAware ADS-B
Tue 01:19:00 PM 38.3936 -123.8883 130° Southeast 481 554 41,000  Level FlightAware ADS-B
Tue 01:19:43 PM 38.3160 -123.7710 130° Southeast 483 556 41,000  Level FlightAware ADS-B
Tue 01:20:23 PM 38.2584 -123.6843 130° Southeast 484 557 41,000  Level FlightAware ADS-B
Tue 01:21:21 PM 38.1801 -123.5670 130° Southeast 483 556 41,000  Level FlightAware ADS-B
Tue 01:22:01 PM 38.1191 -123.4757 130° Southeast 484 557 41,000  Level FlightAware ADS-B
Tue 01:22:32 PM 38.0766 -123.4123 130° Southeast 483 556 41,000  Level FlightAware ADS-B
Tue 01:23:04 PM 38.0330 -123.3473 130° Southeast 482 555 41,000  Level FlightAware ADS-B
Tue 01:23:37 PM 37.9773 -123.2645 131° Southeast 482 555 41,000  Level FlightAware ADS-B
Tue 01:24:18 PM 37.9238 -123.1853 131° Southeast 482 555 41,000  Level FlightAware ADS-B
Tue 01:24:58 PM 37.8669 -123.1014 131° Southeast 477 549 41,000  Level FlightAware ADS-B
Tue 01:25:43 PM 37.7962 -122.9971 131° Southeast 477 549 41,000  Level FlightAware ADS-B
Tue 01:26:43 PM 37.7101 -122.8707 131° Southeast 475 547 41,000  Level FlightAware ADS-B
Tue 01:27:41 PM 37.6433 -122.7728 131° Southeast 478 550 41,000  Level FlightAware ADS-B
Tue 01:28:15 PM 37.5812 -122.6824 131° Southeast 478 550 41,000  Level FlightAware ADS-B
Tue 01:28:45 PM 37.5347 -122.6147 131° Southeast 478 550 41,000  Level FlightAware ADS-B
Tue 01:29:15 PM 37.4946 -122.5564 131° Southeast 477 549 41,000  Level FlightAware ADS-B
Tue 01:29:16 PM 37.4891 -122.5480 131° Southeast 477 549 41,000  Level FlightAware ADS-B
Tue 01:29:53 PM 37.4365 -122.4720 131° Southeast 477 549 41,000  Level FlightAware ADS-B
Tue 01:29:55 PM 37.4365 -122.4721 131° Southeast 477 549 41,000  Level FlightAware ADS-B
Tue 01:30:23 PM 37.3919 -122.4080 131° Southeast 478 550 41,000  Level FlightAware ADS-B
Tue 01:30:25 PM 37.3905 -122.4055 131° Southeast 479 551 41,000  Level FlightAware ADS-B
Tue 01:30:55 PM 37.3483 -122.3447 131° Southeast 480 552 41,000  Level FlightAware ADS-B
Tue 01:31:11 PM 37.3230 -122.3080 131° Southeast 479 551 41,000  Level FlightAware ADS-B
Tue 01:31:25 PM 37.3031 -122.2797 131° Southeast 480 552 41,000  Level FlightAware ADS-B
Tue 01:31:41 PM 37.2792 -122.2450 131° Southeast 480 552 41,000  Level FlightAware ADS-B
Tue 01:32:05 PM 37.2439 -122.1946 131° Southeast 480 552 41,000  Level FlightAware ADS-B
Tue 01:32:11 PM 37.2349 -122.1820 131° Southeast 481 554 41,000  Level FlightAware ADS-B
Tue 01:32:35 PM 37.2025 -122.1351 131° Southeast 479 551 41,000  Level FlightAware ADS-B
Tue 01:32:43 PM 37.1879 -122.1140 131° Southeast 479 551 41,000  Level FlightAware ADS-B
Tue 01:33:14 PM 37.1434 -122.0510 131° Southeast 478 550 41,000  Level FlightAware ADS-B
Tue 01:33:16 PM 37.1408 -122.0469 131° Southeast 477 549 41,000  Level FlightAware ADS-B
Tue 01:33:45 PM 37.0984 -121.9860 131° Southeast 476 548 41,000  Level FlightAware ADS-B
Tue 01:33:55 PM 37.1013 -121.9906 131° Southeast 476 548 41,000  Level FlightAware ADS-B
Tue 01:34:15 PM 37.0551 -121.9250 131° Southeast 473 544 41,000  Level FlightAware ADS-B
Tue 01:34:25 PM 37.0741 -121.9517 131° Southeast 473 544 41,000  Level FlightAware ADS-B
Tue 01:34:49 PM 37.0054 -121.8540 131° Southeast 473 544 41,000  Level FlightAware ADS-B
Tue 01:35:16 PM 36.9676 -121.8003 131° Southeast 473 544 41,000  Level FlightAware ADS-B
Tue 01:35:33 PM 36.9433 -121.7660 131° Southeast 473 544 41,000  Level FlightAware ADS-B
Tue 01:35:56 PM 36.9156 -121.7266 131° Southeast 474 545 41,000  Level FlightAware ADS-B
Tue 01:36:04 PM 36.8982 -121.7020 131° Southeast 474 545 41,000  Level FlightAware ADS-B
Tue 01:36:35 PM 36.8535 -121.6390 131° Southeast 473 544 41,000  Level FlightAware ADS-B
Tue 01:37:15 PM 36.7953 -121.5570 131° Southeast 473 544 41,000  Level FlightAware ADS-B
Tue 01:37:16 PM 36.7935 -121.5544 131° Southeast 473 544 41,000  Level FlightAware ADS-B
Tue 01:37:45 PM 36.7512 -121.4950 131° Southeast 473 544 41,000  Level FlightAware ADS-B
Tue 01:38:16 PM 36.7062 -121.4320 131° Southeast 473 544 41,000  Level FlightAware ADS-B
Tue 01:38:47 PM 36.6616 -121.3690 131° Southeast 473 544 41,000  Level FlightAware ADS-B
Tue 01:39:19 PM 36.6145 -121.3030 131° Southeast 473 544 41,000  Level FlightAware ADS-B
Tue 01:40:16 PM 36.5320 -121.1880 132° Southeast 473 544 41,000  Level FlightAware ADS-B
Tue 01:41:21 PM 36.4518 -121.0768 132° Southeast 473 544 41,000 -248 Level FlightAware ADS-B
Tue 01:42:41 PM 36.3458 -120.9300 132° Southeast 475 547 40,400 -851 Descending FlightAware ADS-B
Tue 01:43:42 PM 36.2311 -120.7721 132° Southeast 479 551 39,000 -1,480 Descending FlightAware ADS-B
Tue 01:45:11 PM 36.1010 -120.5940 132° Southeast 456 525 36,700 -1,800 Descending FlightAware ADS-B
Tue 01:45:42 PM 36.0636 -120.5458 132° Southeast 469 540 35,400 -1,565 Descending Los Angeles Center
Tue 01:46:20 PM 36.0131 -120.4767 132° Southeast 460 529 34,900 -240 Descending Oakland Center
Tue 01:47:22 PM 35.9308 -120.3658 132° Southeast 442 509 35,000 48 Climbing Oakland Center
Tue 01:48:24 PM 35.8503 -120.2533 131° Southeast 438 504 35,000  Level Oakland Center
Tue 01:49:25 PM 35.7667 -120.1417 133° Southeast 439 505 35,000  Level Oakland Center
Tue 01:50:27 PM 35.6842 -120.0300 132° Southeast 442 509 35,000  Level Oakland Center
Tue 01:51:28 PM 35.5917 -119.9306 139° Southeast 443 510 35,000 -731 Level Oakland Center
Tue 01:57:01 PM 35.0141 -119.4351 144° Southeast 449 517 30,200 -1,039 Descending FlightAware ADS-B
Tue 01:57:49 PM 34.9312 -119.3646 145° Southeast 452 520 28,400 -2,506 Descending FlightAware ADS-B
Tue 01:58:20 PM 34.8768 -119.3185 145° Southeast 454 522 26,900 -2,550 Descending FlightAware ADS-B
Tue 01:59:09 PM 34.7933 -119.2477 144° Southeast 455 524 25,000 -2,313 Descending FlightAware ADS-B
Tue 01:59:43 PM 34.7346 -119.1981 145° Southeast 453 521 23,700 -2,325 Descending FlightAware ADS-B
Tue 02:00:29 PM 34.6557 -119.1317 145° Southeast 443 510 21,900 -2,571 Descending FlightAware ADS-B
Tue 02:01:07 PM 34.5927 -119.0787 145° Southeast 419 482 20,100 -2,325 Descending FlightAware ADS-B
Tue 02:01:49 PM 34.5297 -119.0260 145° Southeast 367 422 18,800 -1,829 Descending FlightAware ADS-B
Tue 02:02:29 PM 34.4757 -118.9808 145° Southeast 354 407 17,600 -1,725 Descending FlightAware ADS-B
Tue 02:03:09 PM 34.4218 -118.9356 145° Southeast 347 399 16,500 -1,595 Descending FlightAware ADS-B
Tue 02:03:48 PM 34.3701 -118.8934 149° Southeast 345 397 15,500 -1,684 Descending FlightAware ADS-B
Tue 02:04:06 PM 34.4018 -118.9188 145° Southeast 346 398 14,900 -1,650 Descending FlightAware ADS-B
Tue 02:04:28 PM 34.3119 -118.8648 163° South 342 394 14,400 -1,475 Descending FlightAware ADS-B
Tue 02:05:07 PM 34.2524 -118.8429 163° South 338 389 13,400 -1,500 Descending FlightAware ADS-B
Tue 02:05:48 PM 34.1916 -118.8206 162° South 330 380 12,400 -1,556 Descending FlightAware ADS-B
Tue 02:06:28 PM 34.1334 -118.7993 163° South 323 372 11,300 -1,671 Descending FlightAware ADS-B
Tue 02:07:07 PM 34.0790 -118.7793 163° South 320 368 10,200 -1,527 Descending FlightAware ADS-B
Tue 02:07:23 PM 34.0565 -118.7673 147° Southeast 316 364 9,900 -800 Descending FlightAware ADS-B
Tue 02:07:37 PM 34.0431 -118.7496 123° Southeast 317 365 9,800 -316 Descending FlightAware ADS-B
Tue 02:07:42 PM 34.0396 -118.7418 115° Southeast 314 361 9,800 600 Level FlightAware ADS-B
Tue 02:07:47 PM 34.0373 -118.7343 107° East 309 356 9,900 240 Climbing FlightAware ADS-B
Tue 02:08:07 PM 34.0330 -118.6997 96° East 293 337 9,900  Level FlightAware ADS-B
Tue 02:08:29 PM 34.0297 -118.6655 96° East 286 329 9,900 -143 Level FlightAware ADS-B
Tue 02:08:49 PM 34.0268 -118.6340 96° East 287 330 9,800 -750 Descending FlightAware ADS-B
Tue 02:09:09 PM 34.0239 -118.6018 96° East 287 330 9,400 -1,132 Descending FlightAware ADS-B
Tue 02:09:42 PM 34.0190 -118.5499 96° East 293 337 8,800 -1,200 Descending FlightAware ADS-B
Tue 02:10:09 PM 34.0152 -118.5100 96° East 264 304 8,200 -917 Descending FlightAware ADS-B
Tue 02:10:54 PM 34.0117 -118.4512 85° East 230 265 7,700 -655 Descending FlightAware ADS-B
Tue 02:11:04 PM 34.0133 -118.4368 96° East 278 320 7,600 -1,059 Descending FlightAware ADS-B
Tue 02:11:11 PM 34.0140 -118.4306 81° East 225 259 7,400 -1,636 Descending FlightAware ADS-B
Tue 02:11:15 PM 34.0147 -118.4251 81° East 225 259 7,300 -1,500 Descending FlightAware ADS-B
Tue 02:11:27 PM 34.0162 -118.4140 81° East 223 257 7,000 -1,778 Descending FlightAware ADS-B
Tue 02:11:42 PM 34.0193 -118.3899 81° East 223 257 6,500 -2,000 Descending FlightAware ADS-B
Tue 02:11:57 PM 34.0213 -118.3738 81° East 226 260 6,000 -1,800 Descending FlightAware ADS-B
Tue 02:12:12 PM 34.0239 -118.3536 81° East 226 260 5,600 -1,200 Descending FlightAware ADS-B
Tue 02:12:27 PM 34.0262 -118.3355 81° East 224 258 5,400 -1,091 Descending FlightAware ADS-B
Tue 02:12:56 PM 34.0299 -118.3042 82° East 213 245 4,800 -1,250 Descending FlightAware ADS-B
Tue 02:13:15 PM 34.0330 -118.2793 82° East 200 230 4,400 -1,263 Descending FlightAware ADS-B
Tue 02:13:34 PM 34.0356 -118.2572 82° East 191 220 4,000 -1,333 Descending FlightAware ADS-B
Tue 02:13:42 PM 34.0367 -118.2490 81° East 189 217 3,800 -1,263 Descending FlightAware ADS-B
Tue 02:14:12 PM 34.0404 -118.2188 82° East 189 217 3,200 -1,019 Descending FlightAware ADS-B
Tue 02:14:35 PM 34.0436 -118.1932 82° East 187 215 2,900 -878 Descending FlightAware ADS-B
Tue 02:14:53 PM 34.0456 -118.1760 82° East 187 215 2,600 -585 Descending FlightAware ADS-B
Tue 02:15:16 PM 34.0482 -118.1515 87° East 188 216 2,500 -143 Descending FlightAware ADS-B
Tue 02:15:35 PM 34.0460 -118.1386 134° Southeast 189 217 2,500  Level FlightAware ADS-B
Tue 02:15:55 PM 34.0282 -118.1251 171° South 191 220 2,500  Level FlightAware ADS-B
Tue 02:16:13 PM 34.0119 -118.1227 174° South 191 220 2,500  Level FlightAware ADS-B
Tue 02:16:36 PM 33.9938 -118.1234 207° Southwest 192 221 2,500  Level FlightAware ADS-B
Tue 02:16:56 PM 33.9804 -118.1389 247° West 193 222 2,500 -150 Level FlightAware ADS-B
Tue 02:17:16 PM 33.9762 -118.1618 263° West 196 226 2,400 -308 Descending FlightAware ADS-B
Tue 02:17:35 PM 33.9742 -118.1822 264° West 194 223 2,300 -316 Descending FlightAware ADS-B
Tue 02:17:54 PM 33.9733 -118.1917 264° West 194 223 2,200 -316 Descending FlightAware ADS-B
Tue 02:18:13 PM 33.9706 -118.2193 263° West 190 219 2,100  Descending FlightAware ADS-B
Tue 02:18:52 PM 33.9686 -118.2525 263° West 196 226 2,200 -297 Climbing Los Angeles Center
Tue 02:19:54 PM 33.9617 -118.3114 262° West 188 216 1,600 -726 Descending Los Angeles Center
Tue 02:20:56 PM 33.9569 -118.3692 264° West 162 186 700 -726 Descending Los Angeles Center
Tue 02:21:58 PM 33.9519 -118.4156 263° West 148 170 100 -581 Descending Los Angeles Center

Login

Don't have an account? Register now (free) for customized features, flight alerts, and more!